Time,TemperatureF,DewpointF,PressureIn,WindDirection,WindDirectionDegrees,WindSpeedMPH,WindSpeedGustMPH,Humidity,HourlyPrecipIn,Conditions,Clouds,dailyrainin,SolarRadiationWatts/m^2,SoftwareType,DateUTC
2013-04-24 00:02:00,69.0,65.0,-100.00,NNW,341,3.0,6.0,87,0.00,,,0.00,0.000000,,2013-04-24 10:02:00,
2013-04-24 00:12:00,69.0,65.0,-100.00,NNW,341,3.0,6.0,87,0.00,,,0.00,0.000000,,2013-04-24 10:12:00,
2013-04-24 00:22:00,69.0,65.0,-100.00,NNW,341,3.0,6.0,87,0.00,,,0.00,0.000000,,2013-04-24 10:22:00,
2013-04-24 00:32:00,69.0,65.0,-100.00,NNW,341,3.0,6.0,87,0.00,,,0.00,0.000000,,2013-04-24 10:32:00,
2013-04-24 01:02:00,70.0,67.0,-100.00,NNE,23,2.0,4.0,91,0.00,,,0.00,0.000000,,2013-04-24 11:02:00,
2013-04-24 01:11:00,70.0,67.0,-100.00,NNE,23,2.0,4.0,91,0.00,,,0.00,0.000000,,2013-04-24 11:11:00,
2013-04-24 01:21:00,70.0,67.0,-100.00,NNE,23,2.0,4.0,91,0.00,,,0.00,0.000000,,2013-04-24 11:21:00,
2013-04-24 01:32:00,70.0,67.0,-100.00,NNE,23,2.0,4.0,91,0.00,,,0.00,0.000000,,2013-04-24 11:32:00,
2013-04-24 02:02:00,70.0,67.0,-100.00,NNE,25,3.0,5.0,91,0.00,,,0.00,0.000000,,2013-04-24 12:02:00,
2013-04-24 02:11:00,70.0,67.0,-100.00,NNE,25,3.0,5.0,91,0.00,,,0.00,0.000000,,2013-04-24 12:11:00,
2013-04-24 02:22:00,70.0,67.0,-100.00,NNE,25,3.0,5.0,91,0.00,,,0.00,0.000000,,2013-04-24 12:22:00,
2013-04-24 02:31:00,70.0,67.0,-100.00,NNE,25,3.0,5.0,91,0.00,,,0.00,0.000000,,2013-04-24 12:31:00,
2013-04-24 03:01:00,68.0,66.0,-100.00,NNE,33,2.0,5.0,92,0.00,,,0.00,0.000000,,2013-04-24 13:01:00,
2013-04-24 03:12:00,68.0,66.0,-100.00,NNE,33,2.0,5.0,92,0.00,,,0.00,0.000000,,2013-04-24 13:12:00,
2013-04-24 03:22:00,68.0,66.0,-100.00,NNE,33,2.0,5.0,92,0.00,,,0.00,0.000000,,2013-04-24 13:22:00,
2013-04-24 03:31:00,68.0,66.0,-100.00,NNE,33,2.0,5.0,92,0.00,,,0.00,0.000000,,2013-04-24 13:31:00,
2013-04-24 05:01:00,68.0,67.0,-100.00,South,185,5.0,8.0,96,-99.99,,,0.16,0.000000,,2013-04-24 15:01:00,
2013-04-24 05:11:00,68.0,67.0,-100.00,South,185,5.0,8.0,96,-99.99,,,0.16,0.000000,,2013-04-24 15:11:00,
2013-04-24 05:21:00,68.0,67.0,-100.00,South,185,5.0,8.0,96,-99.99,,,0.16,0.000000,,2013-04-24 15:21:00,
2013-04-24 05:32:00,68.0,67.0,-100.00,South,185,5.0,8.0,96,-99.99,,,0.16,0.000000,,2013-04-24 15:32:00,
2013-04-24 06:03:00,66.0,65.0,-100.00,North,7,3.0,8.0,97,0.76,,,0.92,0.000000,,2013-04-24 16:03:00,
2013-04-24 06:12:00,66.0,65.0,-100.00,North,7,3.0,8.0,97,0.76,,,0.92,0.000000,,2013-04-24 16:12:00,
2013-04-24 06:23:00,66.0,65.0,-100.00,North,7,3.0,8.0,97,0.76,,,0.92,0.000000,,2013-04-24 16:23:00,
2013-04-24 06:32:00,66.0,65.0,-100.00,North,7,3.0,8.0,97,0.76,,,0.92,0.000000,,2013-04-24 16:32:00,
2013-04-24 07:02:00,66.0,65.0,-100.00,NNE,14,3.0,8.0,97,0.14,,,1.06,0.000000,,2013-04-24 17:02:00,
2013-04-24 07:12:00,66.0,65.0,-100.00,NNE,14,3.0,8.0,97,0.14,,,1.06,0.000000,,2013-04-24 17:12:00,
2013-04-24 07:22:00,66.0,65.0,-100.00,NNE,14,3.0,8.0,97,0.14,,,1.06,0.000000,,2013-04-24 17:22:00,
2013-04-24 07:32:00,66.0,65.0,-100.00,NNE,14,3.0,8.0,97,0.14,,,1.06,0.000000,,2013-04-24 17:32:00,
2013-04-24 08:02:00,67.0,66.0,-100.00,NNE,33,3.0,7.0,97,0.10,,,1.16,0.000000,,2013-04-24 18:02:00,
2013-04-24 08:12:00,67.0,66.0,-100.00,NNE,33,3.0,7.0,97,0.10,,,1.16,0.000000,,2013-04-24 18:12:00,
2013-04-24 08:21:00,67.0,66.0,-100.00,NNE,33,3.0,7.0,97,0.10,,,1.16,0.000000,,2013-04-24 18:21:00,
2013-04-24 08:32:00,67.0,66.0,-100.00,NNE,33,3.0,7.0,97,0.10,,,1.16,0.000000,,2013-04-24 18:32:00,
2013-04-24 09:01:00,73.0,68.0,-100.00,NNW,341,4.0,7.0,85,0.00,,,1.16,41.000000,,2013-04-24 19:01:00,
2013-04-24 09:11:00,73.0,68.0,-100.00,NNW,341,4.0,7.0,85,0.00,,,1.16,41.000000,,2013-04-24 19:11:00,
2013-04-24 09:21:00,73.0,68.0,-100.00,NNW,341,4.0,7.0,85,0.00,,,1.16,41.000000,,2013-04-24 19:21:00,
2013-04-24 09:31:00,73.0,68.0,-100.00,NNW,341,4.0,7.0,85,0.00,,,1.16,41.000000,,2013-04-24 19:31:00,
2013-04-24 10:01:00,79.0,67.0,-100.00,SW,228,3.0,9.0,67,0.00,,,1.16,360.000000,,2013-04-24 20:01:00,
2013-04-24 10:11:00,79.0,67.0,-100.00,SW,228,3.0,9.0,67,0.00,,,1.16,360.000000,,2013-04-24 20:11:00,
2013-04-24 10:21:00,79.0,67.0,-100.00,SW,228,3.0,9.0,67,0.00,,,1.16,360.000000,,2013-04-24 20:21:00,
2013-04-24 10:32:00,79.0,67.0,-100.00,SW,228,3.0,9.0,67,0.00,,,1.16,360.000000,,2013-04-24 20:32:00,
2013-04-24 11:02:00,83.0,70.0,-100.00,SSE,163,4.0,9.0,64,0.00,,,1.16,691.000000,,2013-04-24 21:02:00,
2013-04-24 11:11:00,83.0,70.0,-100.00,SSE,163,4.0,9.0,64,0.00,,,1.16,691.000000,,2013-04-24 21:11:00,
2013-04-24 11:21:00,83.0,70.0,-100.00,SSE,163,4.0,9.0,64,0.00,,,1.16,691.000000,,2013-04-24 21:21:00,
2013-04-24 11:32:00,83.0,70.0,-100.00,SSE,163,4.0,9.0,64,0.00,,,1.16,691.000000,,2013-04-24 21:32:00,
2013-04-24 12:03:00,78.0,71.0,-100.00,NW,316,2.0,10.0,79,0.03,,,1.19,869.000000,,2013-04-24 22:03:00,
2013-04-24 12:12:00,78.0,71.0,-100.00,NW,316,2.0,10.0,79,0.03,,,1.19,869.000000,,2013-04-24 22:12:00,
2013-04-24 12:22:00,78.0,71.0,-100.00,NW,316,2.0,10.0,79,0.03,,,1.19,869.000000,,2013-04-24 22:22:00,
2013-04-24 12:32:00,78.0,71.0,-100.00,NW,316,2.0,10.0,79,0.03,,,1.19,869.000000,,2013-04-24 22:32:00,
2013-04-24 13:02:00,83.0,71.0,-100.00,South,188,6.0,12.0,67,0.00,,,1.19,576.000000,,2013-04-24 23:02:00,
2013-04-24 13:12:00,83.0,71.0,-100.00,South,188,6.0,12.0,67,0.00,,,1.19,576.000000,,2013-04-24 23:12:00,
2013-04-24 13:21:00,83.0,71.0,-100.00,South,188,6.0,12.0,67,0.00,,,1.19,576.000000,,2013-04-24 23:21:00,
2013-04-24 13:32:00,83.0,71.0,-100.00,South,188,6.0,12.0,67,0.00,,,1.19,576.000000,,2013-04-24 23:32:00,
2013-04-24 14:01:00,84.0,70.0,-100.00,SSW,200,7.0,14.0,64,0.00,,,1.19,1230.000000,,2013-04-25 00:01:00,
2013-04-24 14:12:00,84.0,70.0,-100.00,SSW,200,7.0,14.0,64,0.00,,,1.19,1230.000000,,2013-04-25 00:12:00,
2013-04-24 14:22:00,84.0,70.0,-100.00,SSW,200,7.0,14.0,64,0.00,,,1.19,1230.000000,,2013-04-25 00:22:00,
2013-04-24 14:32:00,84.0,70.0,-100.00,SSW,200,7.0,14.0,64,0.00,,,1.19,1230.000000,,2013-04-25 00:32:00,
2013-04-24 15:01:00,78.0,68.0,-100.00,South,172,7.0,14.0,71,0.00,,,1.19,1239.000000,,2013-04-25 01:01:00,
2013-04-24 15:11:00,78.0,68.0,-100.00,South,172,7.0,14.0,71,0.00,,,1.19,1239.000000,,2013-04-25 01:11:00,
2013-04-24 15:22:00,78.0,68.0,-100.00,South,172,7.0,14.0,71,0.00,,,1.19,1239.000000,,2013-04-25 01:22:00,
2013-04-24 15:32:00,78.0,68.0,-100.00,South,172,7.0,14.0,71,0.00,,,1.19,1239.000000,,2013-04-25 01:32:00,
2013-04-24 16:02:00,75.0,68.0,-100.00,ENE,69,1.0,9.0,80,0.01,,,1.20,809.000000,,2013-04-25 02:02:00,
2013-04-24 16:11:00,75.0,68.0,-100.00,ENE,69,1.0,9.0,80,0.01,,,1.20,809.000000,,2013-04-25 02:11:00,
2013-04-24 16:22:00,75.0,68.0,-100.00,ENE,69,1.0,9.0,80,0.01,,,1.20,809.000000,,2013-04-25 02:22:00,
2013-04-24 16:32:00,75.0,68.0,-100.00,ENE,69,1.0,9.0,80,0.01,,,1.20,809.000000,,2013-04-25 02:32:00,
2013-04-24 17:02:00,69.0,66.0,-100.00,North,353,5.0,11.0,90,0.02,,,1.22,154.000000,,2013-04-25 03:02:00,
2013-04-24 17:11:00,69.0,66.0,-100.00,North,353,5.0,11.0,90,0.02,,,1.22,154.000000,,2013-04-25 03:11:00,
2013-04-24 17:22:00,69.0,66.0,-100.00,North,353,5.0,11.0,90,0.02,,,1.22,154.000000,,2013-04-25 03:22:00,
2013-04-24 17:32:00,69.0,66.0,-100.00,North,353,5.0,11.0,90,0.02,,,1.22,154.000000,,2013-04-25 03:32:00,
2013-04-24 18:03:00,72.0,69.0,-100.00,NNW,346,3.0,9.0,89,0.01,,,1.23,66.000000,,2013-04-25 04:03:00,
2013-04-24 18:12:00,72.0,69.0,-100.00,NNW,346,3.0,9.0,89,0.01,,,1.23,66.000000,,2013-04-25 04:12:00,
2013-04-24 18:22:00,72.0,69.0,-100.00,NNW,346,3.0,9.0,89,0.01,,,1.23,66.000000,,2013-04-25 04:22:00,
2013-04-24 18:32:00,72.0,69.0,-100.00,NNW,346,3.0,9.0,89,0.01,,,1.23,66.000000,,2013-04-25 04:32:00,
2013-04-24 19:02:00,71.0,67.0,-100.00,North,3,5.0,13.0,88,0.01,,,1.24,81.000000,,2013-04-25 05:02:00,
2013-04-24 19:12:00,71.0,67.0,-100.00,North,3,5.0,13.0,88,0.01,,,1.24,81.000000,,2013-04-25 05:12:00,
2013-04-24 19:21:00,71.0,67.0,-100.00,North,3,5.0,13.0,88,0.01,,,1.24,81.000000,,2013-04-25 05:21:00,
2013-04-24 19:31:00,71.0,67.0,-100.00,North,3,5.0,13.0,88,0.01,,,1.24,81.000000,,2013-04-25 05:31:00,
2013-04-24 20:01:00,72.0,67.0,-100.00,NE,40,2.0,13.0,84,0.00,,,1.24,35.000000,,2013-04-25 06:01:00,
2013-04-24 20:11:00,72.0,67.0,-100.00,NE,40,2.0,13.0,84,0.00,,,1.24,35.000000,,2013-04-25 06:11:00,
2013-04-24 20:22:00,72.0,67.0,-100.00,NE,40,2.0,13.0,84,0.00,,,1.24,35.000000,,2013-04-25 06:22:00,
2013-04-24 20:31:00,72.0,67.0,-100.00,NE,40,2.0,13.0,84,0.00,,,1.24,35.000000,,2013-04-25 06:31:00,
2013-04-24 21:01:00,70.0,65.0,-100.00,NE,40,2.0,11.0,85,0.01,,,1.25,1.000000,,2013-04-25 07:01:00,
2013-04-24 21:11:00,70.0,65.0,-100.00,NE,40,2.0,11.0,85,0.01,,,1.25,1.000000,,2013-04-25 07:11:00,
2013-04-24 21:21:00,70.0,65.0,-100.00,NE,40,2.0,11.0,85,0.01,,,1.25,1.000000,,2013-04-25 07:21:00,
2013-04-24 21:31:00,70.0,65.0,-100.00,NE,40,2.0,11.0,85,0.01,,,1.25,1.000000,,2013-04-25 07:31:00,
2013-04-24 22:01:00,72.0,67.0,-100.00,North,8,4.0,13.0,83,0.00,,,1.25,0.000000,,2013-04-25 08:01:00,
2013-04-24 22:11:00,72.0,67.0,-100.00,North,8,4.0,13.0,83,0.00,,,1.25,0.000000,,2013-04-25 08:11:00,
2013-04-24 22:21:00,72.0,67.0,-100.00,North,8,4.0,13.0,83,0.00,,,1.25,0.000000,,2013-04-25 08:21:00,
2013-04-24 22:31:00,72.0,67.0,-100.00,North,8,4.0,13.0,83,0.00,,,1.25,0.000000,,2013-04-25 08:31:00,
2013-04-24 23:01:00,72.0,66.0,-100.00,North,8,4.0,13.0,81,0.00,,,1.25,0.000000,,2013-04-25 09:01:00,
2013-04-24 23:11:00,72.0,66.0,-100.00,North,8,4.0,13.0,81,0.00,,,1.25,0.000000,,2013-04-25 09:11:00,
2013-04-24 23:21:00,72.0,66.0,-100.00,North,8,4.0,13.0,81,0.00,,,1.25,0.000000,,2013-04-25 09:21:00,
2013-04-24 23:32:00,72.0,66.0,-100.00,North,8,4.0,13.0,81,0.00,,,1.25,0.000000,,2013-04-25 09:32:00,